createdAt,value
2022-11-20T00:02:59.204Z,22.48
2022-11-20T00:06:03.614Z,23.55
2022-11-20T00:09:06.387Z,21.30
2022-11-20T00:12:08.776Z,18.27
2022-11-20T00:15:11.190Z,19.40
2022-11-20T00:18:13.485Z,20.23
2022-11-20T00:21:19.476Z,21.05
2022-11-20T00:24:21.809Z,22.92
2022-11-20T00:27:25.398Z,19.40
2022-11-20T00:30:27.721Z,18.80
2022-11-20T00:33:30.420Z,21.58
2022-11-20T00:36:34.970Z,20.73
2022-11-20T00:39:37.204Z,22.42
2022-11-20T00:42:39.583Z,22.88
2022-11-20T00:45:41.847Z,20.40
2022-11-20T00:48:44.924Z,23.65
2022-11-20T00:51:48.579Z,19.30
2022-11-20T00:54:51.048Z,21.77
2022-11-20T00:57:53.382Z,22.33
2022-11-20T01:01:01.003Z,19.73
2022-11-20T01:04:03.679Z,22.23
2022-11-20T01:07:07.355Z,22.50
2022-11-20T01:10:09.981Z,17.67
2022-11-20T01:13:30.833Z,24.20
2022-11-20T01:16:34.859Z,18.05
2022-11-20T01:19:37.186Z,19.05
2022-11-20T01:22:40.755Z,23.77
2022-11-20T01:25:43.052Z,20.58
2022-11-20T01:28:45.540Z,22.85
2022-11-20T01:31:48.222Z,23.85
2022-11-20T01:34:50.467Z,21.42
2022-11-20T01:37:54.179Z,21.25
2022-11-20T01:40:56.967Z,20.35
2022-11-20T01:43:59.395Z,21.80
2022-11-20T01:47:03.597Z,21.05
2022-11-20T01:50:07.476Z,23.55
2022-11-20T01:53:14.213Z,20.70
2022-11-20T01:56:16.804Z,22.67
2022-11-20T01:59:20.688Z,20.73
2022-11-20T02:02:23.191Z,21.13
2022-11-20T02:05:30.055Z,18.02
2022-11-20T02:08:33.877Z,21.17
2022-11-20T02:11:36.172Z,21.52
2022-11-20T02:14:38.527Z,19.58
2022-11-20T02:17:40.805Z,23.13
2022-11-20T02:20:45.157Z,22.10
2022-11-20T02:24:12.853Z,18.42
2022-11-20T02:27:16.499Z,19.02
2022-11-20T02:30:18.942Z,18.02
2022-11-20T02:33:21.219Z,18.02
2022-11-20T02:36:25.586Z,23.35
2022-11-20T02:39:29.467Z,21.88
2022-11-20T02:42:31.880Z,19.10
2022-11-20T02:45:34.315Z,15.80
2022-11-20T02:48:36.557Z,19.55
2022-11-20T02:51:38.841Z,23.63
2022-11-20T02:54:42.524Z,17.83
2022-11-20T02:57:44.884Z,16.23
2022-11-20T03:00:47.156Z,19.73
2022-11-20T03:03:49.738Z,20.13
2022-11-20T03:06:52.016Z,20.98
2022-11-20T03:09:55.663Z,19.83
2022-11-20T03:12:58.034Z,20.58
2022-11-20T03:16:06.622Z,20.58
2022-11-20T03:19:08.871Z,21.45
2022-11-20T03:22:11.105Z,19.30
2022-11-20T03:25:14.867Z,21.13
2022-11-20T03:28:17.114Z,20.17
2022-11-20T03:31:21.455Z,16.35
2022-11-20T03:34:24.155Z,17.95
2022-11-20T03:37:26.390Z,20.77
2022-11-20T03:40:30.030Z,25.02
2022-11-20T03:43:32.862Z,19.70
2022-11-20T03:46:35.373Z,19.30
2022-11-20T03:49:37.955Z,23.52
2022-11-20T03:52:40.435Z,22.67
2022-11-20T03:55:44.134Z,23.85
2022-11-20T03:58:46.723Z,20.45
2022-11-20T04:01:49.693Z,19.50
2022-11-20T04:04:52.120Z,20.42
2022-11-20T04:07:54.595Z,21.73
2022-11-20T04:10:58.219Z,22.67
2022-11-20T04:14:02.529Z,20.02
2022-11-20T04:17:06.641Z,23.63
2022-11-20T04:20:09.778Z,20.58
2022-11-20T04:23:12.021Z,21.13
2022-11-20T04:26:15.686Z,22.85
2022-11-20T04:29:17.960Z,22.25
2022-11-20T04:32:20.287Z,19.52
2022-11-20T04:35:22.523Z,19.73
2022-11-20T04:38:24.727Z,23.58
2022-11-20T04:41:30.477Z,25.40
2022-11-20T04:44:32.736Z,26.85
2022-11-20T04:47:35.019Z,23.98
2022-11-20T04:50:41.091Z,24.58
2022-11-20T04:53:43.466Z,28.75
2022-11-20T04:56:48.819Z,24.48
2022-11-20T04:59:51.198Z,23.55
2022-11-20T05:02:53.715Z,21.70
2022-11-20T05:05:56.066Z,23.17
2022-11-20T05:08:58.411Z,18.60
2022-11-20T05:12:01.987Z,23.08
2022-11-20T05:15:04.779Z,24.27
2022-11-20T05:18:08.317Z,24.98
2022-11-20T05:21:11.858Z,24.30
2022-11-20T05:24:15.312Z,22.98
2022-11-20T05:27:19.010Z,27.35
2022-11-20T05:30:21.315Z,24.73
2022-11-20T05:33:23.890Z,26.48
2022-11-20T05:36:26.471Z,24.10
2022-11-20T05:39:28.902Z,20.55
2022-11-20T05:42:32.849Z,27.33
2022-11-20T05:45:35.176Z,20.88
2022-11-20T05:48:38.536Z,23.17
2022-11-20T05:51:40.745Z,23.85
2022-11-20T05:54:43.108Z,24.55
2022-11-20T05:57:46.793Z,22.02
2022-11-20T06:00:49.192Z,24.67
2022-11-20T06:03:52.177Z,23.67
2022-11-20T06:06:54.643Z,24.38
2022-11-20T06:09:56.933Z,21.65
2022-11-20T06:13:00.650Z,26.25
2022-11-20T06:16:03.427Z,25.00
2022-11-20T06:19:05.643Z,26.30
2022-11-20T06:22:08.158Z,23.90
2022-11-20T06:25:10.414Z,25.00
2022-11-20T06:28:14.029Z,25.75
2022-11-20T06:31:17.875Z,25.70
2022-11-20T06:34:20.404Z,26.83
2022-11-20T06:37:22.635Z,27.52
2022-11-20T06:40:24.919Z,22.92
2022-11-20T06:43:29.829Z,26.30
2022-11-20T06:46:32.175Z,27.20
2022-11-20T06:49:35.328Z,28.75
2022-11-20T06:52:42.395Z,28.20
2022-11-20T06:55:46.671Z,25.80
2022-11-20T06:58:50.393Z,31.95
2022-11-20T07:01:52.713Z,28.05
2022-11-20T07:04:54.992Z,26.75
2022-11-20T07:07:57.556Z,27.35
2022-11-20T07:11:00.806Z,29.33
2022-11-20T07:14:04.574Z,27.10
2022-11-20T07:17:06.806Z,26.27
2022-11-20T07:20:10.184Z,27.17
2022-11-20T07:23:12.432Z,25.00
2022-11-20T07:26:14.797Z,27.75
2022-11-20T07:29:18.550Z,26.67
2022-11-20T07:32:20.929Z,27.00
2022-11-20T07:35:23.734Z,25.40
2022-11-20T07:38:26.073Z,25.88
2022-11-20T07:41:28.695Z,27.27
2022-11-20T07:44:32.430Z,33.13
2022-11-20T07:47:36.521Z,24.70
2022-11-20T07:50:38.824Z,28.65
2022-11-20T07:53:41.133Z,29.02
2022-11-20T07:56:43.426Z,27.17
2022-11-20T07:59:47.121Z,26.88
2022-11-20T08:02:49.470Z,26.48
2022-11-20T08:05:51.916Z,25.30
2022-11-20T08:08:54.216Z,21.52
2022-11-20T08:12:14.775Z,23.83
2022-11-20T08:15:18.510Z,25.00
2022-11-20T08:18:31.058Z,23.58
2022-11-20T08:21:38.178Z,24.75
2022-11-20T08:24:40.703Z,27.92
2022-11-20T08:27:42.950Z,23.33
2022-11-20T08:30:46.959Z,19.58
2022-11-20T08:33:49.420Z,26.90
2022-11-20T08:36:51.940Z,23.75
2022-11-20T08:39:54.729Z,26.05
2022-11-20T08:42:57.000Z,21.60
2022-11-20T08:46:01.927Z,17.35
2022-11-20T08:49:04.502Z,23.85
2022-11-20T08:52:09.420Z,26.80
2022-11-20T08:55:11.719Z,19.70
2022-11-20T08:58:13.975Z,24.63
2022-11-20T09:01:17.733Z,22.30
2022-11-20T09:04:20.431Z,22.33
2022-11-20T09:07:23.126Z,23.55
2022-11-20T09:10:25.682Z,24.33
2022-11-20T09:13:29.587Z,28.70
2022-11-20T09:16:33.321Z,26.33
2022-11-20T09:19:36.522Z,22.92
2022-11-20T09:22:40.760Z,22.75
2022-11-20T09:25:43.200Z,22.92
2022-11-20T09:28:45.506Z,24.95
2022-11-20T09:31:49.224Z,22.40
2022-11-20T09:34:51.694Z,23.15
2022-11-20T09:37:54.188Z,22.05
2022-11-20T09:40:59.188Z,23.55
2022-11-20T09:44:12.938Z,24.50
2022-11-20T09:47:26.762Z,23.30
2022-11-20T09:50:33.465Z,25.30
2022-11-20T09:53:42.090Z,24.60
2022-11-20T09:56:46.572Z,27.40
2022-11-20T09:59:51.864Z,28.30
2022-11-20T10:02:58.950Z,21.60
2022-11-20T10:06:02.213Z,25.20
2022-11-20T10:09:20.426Z,20.50
2022-11-20T10:12:28.462Z,23.83
2022-11-20T10:15:35.494Z,26.08
2022-11-20T10:18:45.775Z,27.92
2022-11-20T10:21:57.786Z,25.77
2022-11-20T10:28:25.921Z,25.73
2022-11-20T10:31:32.819Z,30.35
2022-11-20T10:34:42.674Z,30.48
2022-11-20T10:37:46.574Z,29.60
2022-11-20T10:40:50.557Z,33.42
2022-11-20T10:43:58.043Z,26.63
2022-11-20T10:47:00.493Z,32.63
2022-11-20T10:50:06.826Z,29.13
2022-11-20T10:53:17.465Z,27.42
2022-11-20T10:56:22.106Z,28.05
2022-11-20T10:59:36.922Z,28.17
2022-11-20T11:02:42.851Z,30.77
2022-11-20T11:05:51.085Z,32.85
2022-11-20T11:08:54.782Z,27.38
2022-11-20T11:11:59.114Z,32.72
2022-11-20T11:15:04.432Z,32.63
2022-11-20T11:18:10.060Z,27.60
2022-11-20T11:21:14.420Z,26.77
2022-11-20T11:24:41.640Z,29.20
2022-11-20T11:27:48.035Z,31.33
2022-11-20T11:30:53.161Z,26.70
2022-11-20T11:34:05.919Z,30.15
2022-11-20T11:37:18.428Z,29.23
2022-11-20T11:40:24.666Z,26.65
2022-11-20T11:43:48.499Z,31.63
2022-11-20T11:46:56.544Z,27.27
2022-11-20T11:50:03.850Z,27.85
2022-11-20T11:53:11.440Z,26.13
2022-11-20T11:56:18.037Z,29.15
2022-11-20T11:59:25.692Z,30.38
2022-11-20T12:02:37.382Z,30.25
2022-11-20T12:05:43.064Z,28.63
2022-11-20T12:08:50.592Z,30.35
2022-11-20T12:11:57.004Z,26.23
2022-11-20T12:14:59.685Z,32.92
2022-11-20T12:18:02.072Z,32.25
2022-11-20T12:21:12.812Z,30.50
2022-11-20T12:24:36.560Z,30.98
2022-11-20T12:27:52.418Z,27.65
2022-11-20T12:31:19.729Z,30.20
2022-11-20T12:34:33.101Z,31.52
2022-11-20T12:37:40.842Z,29.13
2022-11-20T12:40:47.955Z,27.20
2022-11-20T12:44:21.511Z,26.10
2022-11-20T12:47:29.655Z,31.80
2022-11-20T12:51:00.344Z,31.20
2022-11-20T12:54:26.992Z,29.17
2022-11-20T12:57:37.115Z,24.48
2022-11-20T13:00:44.637Z,27.65
2022-11-20T13:03:50.453Z,28.55
2022-11-20T13:06:53.064Z,30.77
2022-11-20T13:09:55.922Z,23.05
2022-11-20T13:13:03.573Z,29.73
2022-11-20T13:16:09.562Z,27.38
2022-11-20T13:19:14.622Z,30.38
2022-11-20T13:22:25.610Z,23.15
2022-11-20T13:25:29.063Z,26.63
2022-11-20T13:28:32.836Z,28.27
2022-11-20T13:31:36.321Z,26.08
2022-11-20T13:34:38.751Z,31.35
2022-11-20T13:37:41.128Z,26.38
2022-11-20T13:40:52.535Z,27.40
2022-11-20T13:44:08.912Z,26.08
2022-11-20T13:47:21.403Z,29.38
2022-11-20T13:50:40.071Z,26.17
2022-11-20T13:53:58.319Z,29.27
2022-11-20T13:57:09.522Z,26.70
2022-11-20T14:00:15.924Z,26.83
2022-11-20T14:03:28.465Z,25.42
2022-11-20T14:06:44.616Z,30.83
2022-11-20T14:09:52.186Z,27.92
2022-11-20T14:12:54.548Z,29.58
2022-11-20T14:15:59.302Z,27.52
2022-11-20T14:19:24.840Z,31.20
2022-11-20T14:22:28.171Z,29.50
2022-11-20T14:25:32.106Z,29.83
2022-11-20T14:28:34.514Z,26.42
2022-11-20T14:31:38.269Z,30.98
2022-11-20T14:34:41.616Z,28.00
2022-11-20T14:37:47.246Z,28.70
2022-11-20T14:40:49.619Z,26.60
2022-11-20T14:43:55.563Z,28.98
2022-11-20T14:47:00.410Z,27.85
2022-11-20T14:50:07.377Z,25.80
2022-11-20T14:53:12.318Z,27.73
2022-11-20T14:56:22.539Z,26.92
2022-11-20T14:59:25.817Z,27.23
2022-11-20T15:02:31.029Z,27.40
2022-11-20T15:05:47.439Z,26.95
2022-11-20T15:08:52.197Z,27.20
2022-11-20T15:11:56.826Z,22.27
2022-11-20T15:14:59.437Z,27.83
2022-11-20T15:18:03.288Z,27.33
2022-11-20T15:21:11.799Z,27.70
2022-11-20T15:24:14.043Z,30.38
2022-11-20T15:27:16.345Z,28.08
2022-11-20T15:30:20.390Z,27.58
2022-11-20T15:33:24.044Z,31.98
2022-11-20T15:36:26.425Z,27.13
2022-11-20T15:39:28.728Z,30.65
2022-11-20T15:42:31.247Z,28.30
2022-11-20T15:45:37.406Z,30.02
2022-11-20T15:48:47.941Z,29.52
2022-11-20T15:51:51.191Z,26.00
2022-11-20T15:54:53.644Z,30.15
2022-11-20T15:57:55.959Z,28.80
2022-11-20T16:00:58.708Z,22.63
2022-11-20T16:04:02.551Z,24.95
2022-11-20T16:07:05.121Z,23.00
2022-11-20T16:10:08.191Z,23.65
2022-11-20T16:13:33.476Z,25.80
2022-11-20T16:16:37.885Z,20.00
2022-11-20T16:19:41.751Z,24.65
2022-11-20T16:22:44.179Z,25.95
2022-11-20T16:25:46.874Z,19.23
2022-11-20T16:28:51.120Z,19.92
2022-11-20T16:31:53.507Z,20.88
2022-11-20T16:34:57.248Z,20.80
2022-11-20T16:37:59.714Z,18.13
2022-11-20T16:41:02.649Z,10.65
2022-11-20T16:44:08.626Z,12.45
2022-11-20T16:47:10.897Z,11.18
2022-11-20T16:50:14.745Z,7.22
2022-11-20T16:53:17.470Z,9.20
2022-11-20T16:56:21.323Z,9.88
2022-11-20T16:59:24.160Z,9.90
2022-11-20T17:02:27.238Z,12.27
2022-11-20T17:05:31.758Z,14.40
2022-11-20T17:08:34.685Z,7.57
2022-11-20T17:11:37.547Z,4.88
2022-11-20T17:14:40.125Z,5.30
2022-11-20T17:17:42.576Z,5.30
2022-11-20T17:20:53.005Z,4.22
2022-11-20T17:23:55.353Z,4.07
2022-11-20T17:26:57.892Z,5.03
2022-11-20T17:30:01.041Z,5.63
2022-11-20T17:33:03.386Z,6.00
2022-11-20T17:36:09.184Z,7.50
2022-11-20T17:39:12.063Z,9.15
2022-11-20T17:42:26.676Z,10.43
2022-11-20T17:45:29.502Z,9.48
2022-11-20T17:48:32.273Z,7.82
2022-11-20T17:51:36.815Z,9.70
2022-11-20T17:54:39.467Z,9.32
2022-11-20T17:57:56.866Z,9.43
2022-11-20T18:01:05.116Z,8.75
2022-11-20T18:04:08.193Z,11.93
2022-11-20T18:07:12.468Z,7.60
2022-11-20T18:10:16.435Z,13.38
2022-11-20T18:13:18.895Z,11.85
2022-11-20T18:16:22.043Z,7.78
2022-11-20T18:19:31.316Z,6.95
2022-11-20T18:22:35.770Z,7.28
2022-11-20T18:25:38.991Z,6.95
2022-11-20T18:28:41.997Z,6.72
2022-11-20T18:31:45.216Z,6.45
2022-11-20T18:34:47.737Z,5.68
2022-11-20T18:37:51.701Z,7.97
2022-11-20T18:40:54.122Z,6.13
2022-11-20T18:44:16.059Z,5.35
2022-11-20T18:47:20.722Z,4.25
2022-11-20T18:50:23.171Z,7.22
2022-11-20T18:53:27.707Z,4.90
2022-11-20T18:56:31.317Z,4.60
2022-11-20T18:59:34.144Z,5.78
2022-11-20T19:02:41.530Z,4.78
2022-11-20T19:05:44.796Z,4.28
2022-11-20T19:08:48.487Z,6.72
2022-11-20T19:11:51.062Z,4.55
2022-11-20T19:14:53.551Z,4.75
2022-11-20T19:17:57.614Z,7.30
2022-11-20T19:21:07.230Z,7.03
2022-11-20T19:24:11.011Z,4.45
2022-11-20T19:27:13.512Z,5.53
2022-11-20T19:30:16.007Z,11.02
2022-11-20T19:33:18.364Z,6.50
2022-11-20T19:36:22.478Z,9.70
2022-11-20T19:39:26.650Z,11.15
2022-11-20T19:42:29.212Z,8.05
2022-11-20T19:45:31.985Z,14.98
2022-11-20T19:48:35.291Z,10.27
2022-11-20T19:51:40.007Z,11.95
2022-11-20T19:54:43.640Z,11.00
2022-11-20T19:57:45.960Z,7.28
2022-11-20T20:00:48.307Z,9.35
2022-11-20T20:03:51.162Z,11.93
2022-11-20T20:06:53.627Z,8.63
2022-11-20T20:09:57.294Z,9.27
2022-11-20T20:12:59.628Z,10.80
2022-11-20T20:16:01.991Z,9.10
2022-11-20T20:19:05.096Z,9.90
2022-11-20T20:22:07.422Z,12.77
2022-11-20T20:25:11.223Z,12.25
2022-11-20T20:28:13.633Z,7.88
2022-11-20T20:31:17.642Z,11.15
2022-11-20T20:34:20.133Z,10.90
2022-11-20T20:37:22.389Z,11.32
2022-11-20T20:40:26.113Z,8.73
2022-11-20T20:43:28.852Z,7.95
2022-11-20T20:46:31.237Z,12.40
2022-11-20T20:49:33.592Z,9.43
2022-11-20T20:52:36.109Z,10.50
2022-11-20T20:55:39.763Z,10.98
2022-11-20T20:58:42.214Z,7.38
2022-11-20T21:01:44.475Z,12.00
2022-11-20T21:04:46.694Z,5.95
2022-11-20T21:08:07.659Z,5.88
2022-11-20T21:11:33.010Z,6.35
2022-11-20T21:14:35.650Z,7.28
2022-11-20T21:17:38.133Z,6.90
2022-11-20T21:20:59.046Z,7.72
2022-11-20T21:24:01.660Z,9.80
2022-11-20T21:27:07.490Z,3.95
2022-11-20T21:30:10.911Z,10.05
2022-11-20T21:33:13.552Z,6.07
2022-11-20T21:36:17.271Z,6.00
2022-11-20T21:39:21.764Z,11.18
2022-11-20T21:42:25.592Z,8.85
2022-11-20T21:45:27.929Z,10.80
2022-11-20T21:48:31.627Z,8.25
2022-11-20T21:51:35.239Z,19.95
2022-11-20T21:54:37.616Z,29.23
2022-11-20T21:57:41.249Z,12.82
2022-11-20T22:00:43.582Z,11.05
2022-11-20T22:03:47.777Z,12.55
2022-11-20T22:06:50.074Z,7.70
2022-11-20T22:09:52.395Z,9.52
2022-11-20T22:13:16.276Z,11.85
2022-11-20T22:16:18.798Z,6.57
2022-11-20T22:19:22.411Z,6.13
2022-11-20T22:22:24.651Z,6.97
2022-11-20T22:25:26.959Z,10.60
2022-11-20T22:28:30.657Z,14.65
2022-11-20T22:31:33.021Z,15.63
2022-11-20T22:34:35.449Z,14.50
2022-11-20T22:37:37.717Z,12.30
2022-11-20T22:40:40.087Z,14.07
2022-11-20T22:43:44.675Z,9.27
2022-11-20T22:46:46.964Z,12.25
2022-11-20T22:49:49.798Z,8.32
2022-11-20T22:52:52.041Z,10.80
2022-11-20T22:55:54.448Z,10.30
2022-11-20T22:58:58.171Z,9.23
2022-11-20T23:02:00.808Z,11.00
2022-11-20T23:05:03.185Z,11.25
2022-11-20T23:08:05.641Z,11.25
2022-11-20T23:11:09.762Z,12.05
2022-11-20T23:14:15.276Z,7.30
2022-11-20T23:17:17.584Z,10.45
2022-11-20T23:20:19.917Z,12.32
2022-11-20T23:23:22.244Z,9.63
2022-11-20T23:26:26.019Z,12.00
2022-11-20T23:29:29.690Z,13.18
2022-11-20T23:32:32.025Z,10.57
2022-11-20T23:35:38.716Z,14.85
2022-11-20T23:38:41.531Z,12.20
2022-11-20T23:41:43.737Z,19.92
2022-11-20T23:44:47.401Z,10.45
2022-11-20T23:47:50.088Z,12.35
2022-11-20T23:50:52.398Z,12.70
2022-11-20T23:53:54.681Z,13.75
2022-11-20T23:56:57.026Z,15.75
